sensor_id;sensor_type;location;lat;lon;timestamp;temperature;humidity
6518;DHT22;3292;48.944;9.240;2024-01-16T00:00:39;-0.50;99.90
6518;DHT22;3292;48.944;9.240;2024-01-16T00:03:06;-0.60;99.90
6518;DHT22;3292;48.944;9.240;2024-01-16T00:05:34;-0.60;99.90
6518;DHT22;3292;48.944;9.240;2024-01-16T00:08:01;-0.60;99.90
6518;DHT22;3292;48.944;9.240;2024-01-16T00:10:28;-0.60;99.90
6518;DHT22;3292;48.944;9.240;2024-01-16T00:12:55;-0.60;99.90
6518;DHT22;3292;48.944;9.240;2024-01-16T00:15:21;-0.70;99.90
6518;DHT22;3292;48.944;9.240;2024-01-16T00:17:49;-0.60;99.90
6518;DHT22;3292;48.944;9.240;2024-01-16T00:20:16;-0.60;99.90
6518;DHT22;3292;48.944;9.240;2024-01-16T00:22:44;-0.60;99.90
6518;DHT22;3292;48.944;9.240;2024-01-16T00:25:11;-0.60;99.90
6518;DHT22;3292;48.944;9.240;2024-01-16T00:27:38;-0.70;99.90
6518;DHT22;3292;48.944;9.240;2024-01-16T00:30:06;-0.70;99.90
6518;DHT22;3292;48.944;9.240;2024-01-16T00:32:34;-0.80;99.90
6518;DHT22;3292;48.944;9.240;2024-01-16T00:35:01;-0.80;99.90
6518;DHT22;3292;48.944;9.240;2024-01-16T00:37:28;-0.80;99.90
6518;DHT22;3292;48.944;9.240;2024-01-16T00:39:56;-0.80;99.90
6518;DHT22;3292;48.944;9.240;2024-01-16T00:42:23;-0.80;99.90
6518;DHT22;3292;48.944;9.240;2024-01-16T00:44:50;-0.80;99.90
6518;DHT22;3292;48.944;9.240;2024-01-16T00:47:17;-0.90;99.90
6518;DHT22;3292;48.944;9.240;2024-01-16T00:49:43;-0.90;99.90
6518;DHT22;3292;48.944;9.240;2024-01-16T00:52:10;-0.90;99.90
6518;DHT22;3292;48.944;9.240;2024-01-16T00:54:37;-0.90;99.90
6518;DHT22;3292;48.944;9.240;2024-01-16T00:57:05;-0.90;99.90
6518;DHT22;3292;48.944;9.240;2024-01-16T00:59:32;-0.90;99.90
6518;DHT22;3292;48.944;9.240;2024-01-16T01:01:59;-0.90;99.90
6518;DHT22;3292;48.944;9.240;2024-01-16T01:04:26;-0.90;99.90
6518;DHT22;3292;48.944;9.240;2024-01-16T01:06:53;-0.90;99.90
6518;DHT22;3292;48.944;9.240;2024-01-16T01:09:20;-0.90;99.90
6518;DHT22;3292;48.944;9.240;2024-01-16T01:11:47;-1.00;99.90
6518;DHT22;3292;48.944;9.240;2024-01-16T01:14:15;-1.00;99.90
6518;DHT22;3292;48.944;9.240;2024-01-16T01:16:42;-1.00;99.90
6518;DHT22;3292;48.944;9.240;2024-01-16T01:19:09;-1.10;99.90
6518;DHT22;3292;48.944;9.240;2024-01-16T01:21:35;-1.10;99.90
6518;DHT22;3292;48.944;9.240;2024-01-16T01:24:02;-1.20;99.90
6518;DHT22;3292;48.944;9.240;2024-01-16T01:26:29;-1.20;99.90
6518;DHT22;3292;48.944;9.240;2024-01-16T01:28:56;-1.20;99.90
6518;DHT22;3292;48.944;9.240;2024-01-16T01:31:24;-1.20;99.90
6518;DHT22;3292;48.944;9.240;2024-01-16T01:33:51;-1.30;99.90
6518;DHT22;3292;48.944;9.240;2024-01-16T01:36:18;-1.30;99.90
6518;DHT22;3292;48.944;9.240;2024-01-16T01:38:44;-1.30;99.90
6518;DHT22;3292;48.944;9.240;2024-01-16T01:41:11;-1.20;99.90
6518;DHT22;3292;48.944;9.240;2024-01-16T01:43:38;-1.20;99.90
6518;DHT22;3292;48.944;9.240;2024-01-16T01:46:14;-1.20;99.90
6518;DHT22;3292;48.944;9.240;2024-01-16T01:48:45;-1.20;99.90
6518;DHT22;3292;48.944;9.240;2024-01-16T01:51:14;-1.20;99.90
6518;DHT22;3292;48.944;9.240;2024-01-16T01:53:42;-1.10;99.90
6518;DHT22;3292;48.944;9.240;2024-01-16T01:56:14;-1.10;99.90
6518;DHT22;3292;48.944;9.240;2024-01-16T01:58:43;-1.10;99.90
6518;DHT22;3292;48.944;9.240;2024-01-16T02:01:11;-1.00;99.90
6518;DHT22;3292;48.944;9.240;2024-01-16T02:03:41;-1.00;99.90
6518;DHT22;3292;48.944;9.240;2024-01-16T02:06:10;-1.00;99.90
6518;DHT22;3292;48.944;9.240;2024-01-16T02:08:37;-1.00;99.90
6518;DHT22;3292;48.944;9.240;2024-01-16T02:11:05;-1.00;99.90
6518;DHT22;3292;48.944;9.240;2024-01-16T02:13:32;-1.10;99.90
6518;DHT22;3292;48.944;9.240;2024-01-16T02:15:59;-1.10;99.90
6518;DHT22;3292;48.944;9.240;2024-01-16T02:18:26;-1.10;99.90
6518;DHT22;3292;48.944;9.240;2024-01-16T02:20:54;-1.10;99.90
6518;DHT22;3292;48.944;9.240;2024-01-16T02:23:26;-1.10;99.90
6518;DHT22;3292;48.944;9.240;2024-01-16T02:25:53;-1.20;99.90
6518;DHT22;3292;48.944;9.240;2024-01-16T02:28:20;-1.20;99.90
6518;DHT22;3292;48.944;9.240;2024-01-16T02:30:47;-1.20;99.90
6518;DHT22;3292;48.944;9.240;2024-01-16T02:33:14;-1.30;99.90
6518;DHT22;3292;48.944;9.240;2024-01-16T02:35:41;-1.30;99.90
6518;DHT22;3292;48.944;9.240;2024-01-16T02:38:08;-1.30;99.90
6518;DHT22;3292;48.944;9.240;2024-01-16T02:40:35;-1.30;99.90
6518;DHT22;3292;48.944;9.240;2024-01-16T02:43:02;-1.40;99.90
6518;DHT22;3292;48.944;9.240;2024-01-16T02:45:28;-1.50;99.90
6518;DHT22;3292;48.944;9.240;2024-01-16T02:47:55;-1.50;99.90
6518;DHT22;3292;48.944;9.240;2024-01-16T02:50:22;-1.60;99.90
6518;DHT22;3292;48.944;9.240;2024-01-16T02:52:49;-1.60;99.90
6518;DHT22;3292;48.944;9.240;2024-01-16T02:55:16;-1.60;99.90
6518;DHT22;3292;48.944;9.240;2024-01-16T02:57:44;-1.60;99.90
6518;DHT22;3292;48.944;9.240;2024-01-16T03:00:12;-1.60;99.90
6518;DHT22;3292;48.944;9.240;2024-01-16T03:02:39;-1.50;99.90
6518;DHT22;3292;48.944;9.240;2024-01-16T03:05:06;-1.40;99.90
6518;DHT22;3292;48.944;9.240;2024-01-16T03:07:33;-1.50;99.90
6518;DHT22;3292;48.944;9.240;2024-01-16T03:10:00;-1.50;99.90
6518;DHT22;3292;48.944;9.240;2024-01-16T03:12:27;-1.60;99.90
6518;DHT22;3292;48.944;9.240;2024-01-16T03:14:55;-1.70;99.90
6518;DHT22;3292;48.944;9.240;2024-01-16T03:17:22;-1.70;99.90
6518;DHT22;3292;48.944;9.240;2024-01-16T03:19:49;-1.70;99.90
6518;DHT22;3292;48.944;9.240;2024-01-16T03:22:15;-1.70;99.90
6518;DHT22;3292;48.944;9.240;2024-01-16T03:24:42;-1.70;99.90
6518;DHT22;3292;48.944;9.240;2024-01-16T03:27:09;-1.70;99.90
6518;DHT22;3292;48.944;9.240;2024-01-16T03:29:36;-1.70;99.90
6518;DHT22;3292;48.944;9.240;2024-01-16T03:32:05;-1.70;99.90
6518;DHT22;3292;48.944;9.240;2024-01-16T03:34:31;-1.70;99.90
6518;DHT22;3292;48.944;9.240;2024-01-16T03:36:58;-1.60;99.90
6518;DHT22;3292;48.944;9.240;2024-01-16T03:39:25;-1.70;99.90
6518;DHT22;3292;48.944;9.240;2024-01-16T03:41:52;-1.70;99.90
6518;DHT22;3292;48.944;9.240;2024-01-16T03:44:18;-1.70;99.90
6518;DHT22;3292;48.944;9.240;2024-01-16T03:46:45;-1.70;99.90
6518;DHT22;3292;48.944;9.240;2024-01-16T03:49:13;-1.70;99.90
6518;DHT22;3292;48.944;9.240;2024-01-16T03:51:40;-1.70;99.90
6518;DHT22;3292;48.944;9.240;2024-01-16T03:54:11;-1.70;99.90
6518;DHT22;3292;48.944;9.240;2024-01-16T03:56:38;-1.60;99.90
6518;DHT22;3292;48.944;9.240;2024-01-16T03:59:05;-1.70;99.90
6518;DHT22;3292;48.944;9.240;2024-01-16T04:01:32;-1.70;99.90
6518;DHT22;3292;48.944;9.240;2024-01-16T04:03:59;-1.70;99.90
6518;DHT22;3292;48.944;9.240;2024-01-16T04:06:27;-1.70;99.90
6518;DHT22;3292;48.944;9.240;2024-01-16T04:08:55;-1.80;99.90
6518;DHT22;3292;48.944;9.240;2024-01-16T04:11:22;-1.80;99.90
6518;DHT22;3292;48.944;9.240;2024-01-16T04:13:48;-1.90;99.90
6518;DHT22;3292;48.944;9.240;2024-01-16T04:16:16;-1.90;99.90
6518;DHT22;3292;48.944;9.240;2024-01-16T04:18:43;-2.00;99.90
6518;DHT22;3292;48.944;9.240;2024-01-16T04:21:10;-2.00;99.90
6518;DHT22;3292;48.944;9.240;2024-01-16T04:23:39;-2.10;99.90
6518;DHT22;3292;48.944;9.240;2024-01-16T04:26:06;-2.10;99.90
6518;DHT22;3292;48.944;9.240;2024-01-16T04:28:33;-2.10;99.90
6518;DHT22;3292;48.944;9.240;2024-01-16T04:31:00;-2.20;99.90
6518;DHT22;3292;48.944;9.240;2024-01-16T04:33:27;-2.20;99.90
6518;DHT22;3292;48.944;9.240;2024-01-16T04:35:54;-2.20;99.90
6518;DHT22;3292;48.944;9.240;2024-01-16T04:38:21;-2.30;99.90
6518;DHT22;3292;48.944;9.240;2024-01-16T04:40:49;-2.30;99.90
6518;DHT22;3292;48.944;9.240;2024-01-16T04:43:16;-2.30;99.90
6518;DHT22;3292;48.944;9.240;2024-01-16T04:45:42;-2.40;99.90
6518;DHT22;3292;48.944;9.240;2024-01-16T04:48:09;-2.40;99.90
6518;DHT22;3292;48.944;9.240;2024-01-16T04:50:36;-2.40;99.90
6518;DHT22;3292;48.944;9.240;2024-01-16T04:53:03;-2.40;99.90
6518;DHT22;3292;48.944;9.240;2024-01-16T04:55:30;-2.40;99.90
6518;DHT22;3292;48.944;9.240;2024-01-16T04:57:58;-2.50;99.90
6518;DHT22;3292;48.944;9.240;2024-01-16T05:00:26;-2.50;99.90
6518;DHT22;3292;48.944;9.240;2024-01-16T05:02:52;-2.50;99.90
6518;DHT22;3292;48.944;9.240;2024-01-16T05:05:19;-2.50;99.90
6518;DHT22;3292;48.944;9.240;2024-01-16T05:07:46;-2.50;99.90
6518;DHT22;3292;48.944;9.240;2024-01-16T05:10:13;-2.60;99.90
6518;DHT22;3292;48.944;9.240;2024-01-16T05:12:40;-2.60;99.90
6518;DHT22;3292;48.944;9.240;2024-01-16T05:15:09;-2.60;99.90
6518;DHT22;3292;48.944;9.240;2024-01-16T05:17:39;-2.70;99.90
6518;DHT22;3292;48.944;9.240;2024-01-16T05:20:07;-2.70;99.90
6518;DHT22;3292;48.944;9.240;2024-01-16T05:22:35;-2.70;99.90
6518;DHT22;3292;48.944;9.240;2024-01-16T05:25:04;-2.70;99.90
6518;DHT22;3292;48.944;9.240;2024-01-16T05:27:32;-2.70;99.90
6518;DHT22;3292;48.944;9.240;2024-01-16T05:29:59;-2.70;99.90
6518;DHT22;3292;48.944;9.240;2024-01-16T05:32:27;-2.70;99.90
6518;DHT22;3292;48.944;9.240;2024-01-16T05:34:54;-2.80;99.90
6518;DHT22;3292;48.944;9.240;2024-01-16T05:37:21;-2.80;99.90
6518;DHT22;3292;48.944;9.240;2024-01-16T05:39:48;-2.80;99.90
6518;DHT22;3292;48.944;9.240;2024-01-16T05:42:15;-2.80;99.90
6518;DHT22;3292;48.944;9.240;2024-01-16T05:44:42;-2.80;99.90
6518;DHT22;3292;48.944;9.240;2024-01-16T05:47:08;-2.80;99.90
6518;DHT22;3292;48.944;9.240;2024-01-16T05:49:37;-2.90;99.90
6518;DHT22;3292;48.944;9.240;2024-01-16T05:52:04;-2.90;99.90
6518;DHT22;3292;48.944;9.240;2024-01-16T05:54:32;-2.90;99.90
6518;DHT22;3292;48.944;9.240;2024-01-16T05:56:59;-2.90;99.90
6518;DHT22;3292;48.944;9.240;2024-01-16T05:59:26;-3.00;99.90
6518;DHT22;3292;48.944;9.240;2024-01-16T06:01:53;-2.90;99.90
6518;DHT22;3292;48.944;9.240;2024-01-16T06:04:19;-2.90;99.90
6518;DHT22;3292;48.944;9.240;2024-01-16T06:06:48;-2.90;99.90
6518;DHT22;3292;48.944;9.240;2024-01-16T06:09:14;-2.90;99.90
6518;DHT22;3292;48.944;9.240;2024-01-16T06:11:41;-2.90;99.90
6518;DHT22;3292;48.944;9.240;2024-01-16T06:14:08;-2.90;99.90
6518;DHT22;3292;48.944;9.240;2024-01-16T06:16:35;-2.90;99.90
6518;DHT22;3292;48.944;9.240;2024-01-16T06:19:02;-2.90;99.90
6518;DHT22;3292;48.944;9.240;2024-01-16T06:21:30;-2.90;99.90
6518;DHT22;3292;48.944;9.240;2024-01-16T06:23:59;-2.90;99.90
6518;DHT22;3292;48.944;9.240;2024-01-16T06:26:26;-2.90;99.90
6518;DHT22;3292;48.944;9.240;2024-01-16T06:28:52;-2.90;99.90
6518;DHT22;3292;48.944;9.240;2024-01-16T06:31:19;-2.90;99.90
6518;DHT22;3292;48.944;9.240;2024-01-16T06:33:46;-2.90;99.90
6518;DHT22;3292;48.944;9.240;2024-01-16T06:36:13;-2.90;99.90
6518;DHT22;3292;48.944;9.240;2024-01-16T06:38:39;-2.90;99.90
6518;DHT22;3292;48.944;9.240;2024-01-16T06:41:08;-2.80;99.90
6518;DHT22;3292;48.944;9.240;2024-01-16T06:43:35;-2.80;99.90
6518;DHT22;3292;48.944;9.240;2024-01-16T06:46:01;-2.80;99.90
6518;DHT22;3292;48.944;9.240;2024-01-16T06:48:28;-2.80;99.90
6518;DHT22;3292;48.944;9.240;2024-01-16T06:50:55;-2.80;99.90
6518;DHT22;3292;48.944;9.240;2024-01-16T06:53:22;-2.80;99.90
6518;DHT22;3292;48.944;9.240;2024-01-16T06:55:49;-2.80;99.90
6518;DHT22;3292;48.944;9.240;2024-01-16T06:58:17;-2.80;99.90
6518;DHT22;3292;48.944;9.240;2024-01-16T07:00:44;-2.80;99.90
6518;DHT22;3292;48.944;9.240;2024-01-16T07:03:11;-2.80;99.90
6518;DHT22;3292;48.944;9.240;2024-01-16T07:05:38;-2.80;99.90
6518;DHT22;3292;48.944;9.240;2024-01-16T07:08:06;-2.80;99.90
6518;DHT22;3292;48.944;9.240;2024-01-16T07:10:33;-2.80;99.90
6518;DHT22;3292;48.944;9.240;2024-01-16T07:13:01;-2.80;99.90
6518;DHT22;3292;48.944;9.240;2024-01-16T07:15:29;-2.80;99.90
6518;DHT22;3292;48.944;9.240;2024-01-16T07:17:56;-2.80;99.90
6518;DHT22;3292;48.944;9.240;2024-01-16T07:20:23;-2.80;99.90
6518;DHT22;3292;48.944;9.240;2024-01-16T07:22:50;-2.70;99.90
6518;DHT22;3292;48.944;9.240;2024-01-16T07:25:17;-2.70;99.90
6518;DHT22;3292;48.944;9.240;2024-01-16T07:27:44;-2.80;99.90
6518;DHT22;3292;48.944;9.240;2024-01-16T07:30:14;-2.70;99.90
6518;DHT22;3292;48.944;9.240;2024-01-16T07:32:42;-2.70;99.90
6518;DHT22;3292;48.944;9.240;2024-01-16T07:35:09;-2.70;99.90
6518;DHT22;3292;48.944;9.240;2024-01-16T07:37:36;-2.70;99.90
6518;DHT22;3292;48.944;9.240;2024-01-16T07:40:03;-2.70;99.90
6518;DHT22;3292;48.944;9.240;2024-01-16T07:42:31;-2.70;99.90
6518;DHT22;3292;48.944;9.240;2024-01-16T07:44:59;-2.60;99.90
6518;DHT22;3292;48.944;9.240;2024-01-16T07:47:26;-2.70;99.90
6518;DHT22;3292;48.944;9.240;2024-01-16T07:49:55;-2.60;99.90
6518;DHT22;3292;48.944;9.240;2024-01-16T07:52:21;-2.60;99.90
6518;DHT22;3292;48.944;9.240;2024-01-16T07:54:48;-2.70;99.90
6518;DHT22;3292;48.944;9.240;2024-01-16T07:57:15;-2.60;99.90
6518;DHT22;3292;48.944;9.240;2024-01-16T07:59:42;-2.60;99.90
6518;DHT22;3292;48.944;9.240;2024-01-16T08:02:08;-2.60;99.90
6518;DHT22;3292;48.944;9.240;2024-01-16T08:04:35;-2.60;99.90
6518;DHT22;3292;48.944;9.240;2024-01-16T08:07:04;-2.60;99.90
6518;DHT22;3292;48.944;9.240;2024-01-16T08:09:31;-2.50;99.90
6518;DHT22;3292;48.944;9.240;2024-01-16T08:11:57;-2.50;99.90
6518;DHT22;3292;48.944;9.240;2024-01-16T08:14:24;-2.50;99.90
6518;DHT22;3292;48.944;9.240;2024-01-16T08:16:51;-2.40;99.90
6518;DHT22;3292;48.944;9.240;2024-01-16T08:19:18;-2.40;99.90
6518;DHT22;3292;48.944;9.240;2024-01-16T08:21:44;-2.30;99.90
6518;DHT22;3292;48.944;9.240;2024-01-16T08:24:12;-2.30;99.90
6518;DHT22;3292;48.944;9.240;2024-01-16T08:26:39;-2.20;99.90
6518;DHT22;3292;48.944;9.240;2024-01-16T08:29:06;-2.20;99.90
6518;DHT22;3292;48.944;9.240;2024-01-16T08:31:33;-2.20;99.90
6518;DHT22;3292;48.944;9.240;2024-01-16T08:33:59;-2.20;99.90
6518;DHT22;3292;48.944;9.240;2024-01-16T08:36:26;-2.10;99.90
6518;DHT22;3292;48.944;9.240;2024-01-16T08:38:53;-2.10;99.90
6518;DHT22;3292;48.944;9.240;2024-01-16T08:41:22;-2.00;99.90
6518;DHT22;3292;48.944;9.240;2024-01-16T08:43:49;-1.90;99.90
6518;DHT22;3292;48.944;9.240;2024-01-16T08:46:16;-1.90;99.90
6518;DHT22;3292;48.944;9.240;2024-01-16T08:48:45;-1.80;99.90
6518;DHT22;3292;48.944;9.240;2024-01-16T08:51:12;-1.80;99.90
6518;DHT22;3292;48.944;9.240;2024-01-16T08:53:39;-1.80;99.90
6518;DHT22;3292;48.944;9.240;2024-01-16T08:56:06;-1.70;99.90
6518;DHT22;3292;48.944;9.240;2024-01-16T08:58:35;-1.60;99.90
6518;DHT22;3292;48.944;9.240;2024-01-16T09:01:03;-1.60;99.90
6518;DHT22;3292;48.944;9.240;2024-01-16T09:03:30;-1.50;99.90
6518;DHT22;3292;48.944;9.240;2024-01-16T09:05:57;-1.50;99.90
6518;DHT22;3292;48.944;9.240;2024-01-16T09:08:28;-1.40;99.90
6518;DHT22;3292;48.944;9.240;2024-01-16T09:10:55;-1.30;99.90
6518;DHT22;3292;48.944;9.240;2024-01-16T09:13:22;-1.30;99.90
6518;DHT22;3292;48.944;9.240;2024-01-16T09:15:50;-1.20;99.90
6518;DHT22;3292;48.944;9.240;2024-01-16T09:18:17;-1.20;99.90
6518;DHT22;3292;48.944;9.240;2024-01-16T09:20:44;-1.20;99.90
6518;DHT22;3292;48.944;9.240;2024-01-16T09:23:12;-1.20;99.90
6518;DHT22;3292;48.944;9.240;2024-01-16T09:25:39;-1.10;99.90
6518;DHT22;3292;48.944;9.240;2024-01-16T09:28:06;-1.00;99.90
6518;DHT22;3292;48.944;9.240;2024-01-16T09:30:33;-1.00;99.90
6518;DHT22;3292;48.944;9.240;2024-01-16T09:33:04;-1.00;99.90
6518;DHT22;3292;48.944;9.240;2024-01-16T09:35:32;-0.90;99.90
6518;DHT22;3292;48.944;9.240;2024-01-16T09:37:59;-0.80;99.90
6518;DHT22;3292;48.944;9.240;2024-01-16T09:40:26;-0.80;99.90
6518;DHT22;3292;48.944;9.240;2024-01-16T09:42:53;-0.80;99.90
6518;DHT22;3292;48.944;9.240;2024-01-16T09:45:20;-0.80;99.90
6518;DHT22;3292;48.944;9.240;2024-01-16T09:47:50;-0.70;99.90
6518;DHT22;3292;48.944;9.240;2024-01-16T09:50:18;-0.60;99.90
6518;DHT22;3292;48.944;9.240;2024-01-16T09:52:45;-0.60;99.90
6518;DHT22;3292;48.944;9.240;2024-01-16T09:55:13;-0.50;99.90
6518;DHT22;3292;48.944;9.240;2024-01-16T09:57:41;-0.50;99.90
6518;DHT22;3292;48.944;9.240;2024-01-16T10:00:09;-0.40;99.90
6518;DHT22;3292;48.944;9.240;2024-01-16T10:02:38;-0.30;99.90
6518;DHT22;3292;48.944;9.240;2024-01-16T10:05:06;-0.30;99.90
6518;DHT22;3292;48.944;9.240;2024-01-16T10:07:37;-0.10;99.90
6518;DHT22;3292;48.944;9.240;2024-01-16T10:10:05;0.10;99.90
6518;DHT22;3292;48.944;9.240;2024-01-16T10:12:33;0.10;99.90
6518;DHT22;3292;48.944;9.240;2024-01-16T10:15:00;0.00;99.90
6518;DHT22;3292;48.944;9.240;2024-01-16T10:17:36;0.00;99.90
6518;DHT22;3292;48.944;9.240;2024-01-16T10:20:04;0.00;99.90
6518;DHT22;3292;48.944;9.240;2024-01-16T10:22:31;0.00;99.90
6518;DHT22;3292;48.944;9.240;2024-01-16T10:25:06;0.00;99.90
6518;DHT22;3292;48.944;9.240;2024-01-16T10:27:34;0.00;99.90
6518;DHT22;3292;48.944;9.240;2024-01-16T10:30:00;0.10;99.90
6518;DHT22;3292;48.944;9.240;2024-01-16T10:32:29;0.20;99.90
6518;DHT22;3292;48.944;9.240;2024-01-16T10:35:03;0.20;99.90
6518;DHT22;3292;48.944;9.240;2024-01-16T10:37:31;0.30;99.90
6518;DHT22;3292;48.944;9.240;2024-01-16T10:40:09;0.30;99.90
6518;DHT22;3292;48.944;9.240;2024-01-16T10:42:36;0.50;99.90
6518;DHT22;3292;48.944;9.240;2024-01-16T10:45:04;0.60;99.90
6518;DHT22;3292;48.944;9.240;2024-01-16T10:47:31;0.70;99.90
6518;DHT22;3292;48.944;9.240;2024-01-16T10:50:03;0.60;99.90
6518;DHT22;3292;48.944;9.240;2024-01-16T10:52:33;0.70;99.90
6518;DHT22;3292;48.944;9.240;2024-01-16T10:55:00;0.80;99.90
6518;DHT22;3292;48.944;9.240;2024-01-16T10:57:32;0.80;99.90
6518;DHT22;3292;48.944;9.240;2024-01-16T11:00:03;0.80;99.90
6518;DHT22;3292;48.944;9.240;2024-01-16T11:02:40;0.80;99.90
6518;DHT22;3292;48.944;9.240;2024-01-16T11:05:11;0.80;99.90
6518;DHT22;3292;48.944;9.240;2024-01-16T11:07:40;0.80;99.90
6518;DHT22;3292;48.944;9.240;2024-01-16T11:10:08;0.80;99.90
6518;DHT22;3292;48.944;9.240;2024-01-16T11:12:38;0.90;99.90
6518;DHT22;3292;48.944;9.240;2024-01-16T11:15:06;1.10;99.90
6518;DHT22;3292;48.944;9.240;2024-01-16T11:17:34;1.20;99.90
6518;DHT22;3292;48.944;9.240;2024-01-16T11:20:02;1.40;99.90
6518;DHT22;3292;48.944;9.240;2024-01-16T11:22:31;1.50;99.90
6518;DHT22;3292;48.944;9.240;2024-01-16T11:25:09;1.70;99.90
6518;DHT22;3292;48.944;9.240;2024-01-16T11:27:37;1.80;99.90
6518;DHT22;3292;48.944;9.240;2024-01-16T11:30:06;1.80;99.90
6518;DHT22;3292;48.944;9.240;2024-01-16T11:32:35;1.90;99.90
6518;DHT22;3292;48.944;9.240;2024-01-16T11:35:02;1.90;99.90
6518;DHT22;3292;48.944;9.240;2024-01-16T11:37:30;1.80;99.90
6518;DHT22;3292;48.944;9.240;2024-01-16T11:40:20;1.80;99.90
6518;DHT22;3292;48.944;9.240;2024-01-16T11:42:49;1.80;99.90
6518;DHT22;3292;48.944;9.240;2024-01-16T11:45:50;1.90;99.90
6518;DHT22;3292;48.944;9.240;2024-01-16T11:48:18;2.00;99.90
6518;DHT22;3292;48.944;9.240;2024-01-16T11:50:46;2.20;99.90
6518;DHT22;3292;48.944;9.240;2024-01-16T11:53:32;2.20;99.90
6518;DHT22;3292;48.944;9.240;2024-01-16T11:56:18;2.20;99.90
6518;DHT22;3292;48.944;9.240;2024-01-16T11:59:01;2.20;99.90
6518;DHT22;3292;48.944;9.240;2024-01-16T12:01:35;2.20;99.90
6518;DHT22;3292;48.944;9.240;2024-01-16T12:04:02;2.20;99.90
6518;DHT22;3292;48.944;9.240;2024-01-16T12:06:30;2.20;99.90
6518;DHT22;3292;48.944;9.240;2024-01-16T12:09:11;2.20;99.90
6518;DHT22;3292;48.944;9.240;2024-01-16T12:11:38;2.10;99.90
6518;DHT22;3292;48.944;9.240;2024-01-16T12:14:06;1.90;99.90
6518;DHT22;3292;48.944;9.240;2024-01-16T12:16:33;1.80;99.90
6518;DHT22;3292;48.944;9.240;2024-01-16T12:19:06;1.70;99.90
6518;DHT22;3292;48.944;9.240;2024-01-16T12:21:34;1.80;99.90
6518;DHT22;3292;48.944;9.240;2024-01-16T12:24:02;1.70;99.90
6518;DHT22;3292;48.944;9.240;2024-01-16T12:26:29;1.80;99.90
6518;DHT22;3292;48.944;9.240;2024-01-16T12:28:56;1.80;99.90
6518;DHT22;3292;48.944;9.240;2024-01-16T12:31:25;1.90;99.90
6518;DHT22;3292;48.944;9.240;2024-01-16T12:33:51;1.90;99.90
6518;DHT22;3292;48.944;9.240;2024-01-16T12:36:18;1.90;99.90
6518;DHT22;3292;48.944;9.240;2024-01-16T12:38:54;2.00;99.90
6518;DHT22;3292;48.944;9.240;2024-01-16T12:41:21;1.90;99.90
6518;DHT22;3292;48.944;9.240;2024-01-16T12:43:49;1.90;99.90
6518;DHT22;3292;48.944;9.240;2024-01-16T12:46:17;1.90;99.90
6518;DHT22;3292;48.944;9.240;2024-01-16T12:48:46;1.80;99.90
6518;DHT22;3292;48.944;9.240;2024-01-16T12:51:20;1.90;99.90
6518;DHT22;3292;48.944;9.240;2024-01-16T12:53:47;1.90;99.90
6518;DHT22;3292;48.944;9.240;2024-01-16T12:56:18;1.90;99.90
6518;DHT22;3292;48.944;9.240;2024-01-16T12:58:45;1.80;99.90
6518;DHT22;3292;48.944;9.240;2024-01-16T13:01:24;1.80;99.90
6518;DHT22;3292;48.944;9.240;2024-01-16T13:03:53;1.80;99.90
6518;DHT22;3292;48.944;9.240;2024-01-16T13:06:20;1.80;99.90
6518;DHT22;3292;48.944;9.240;2024-01-16T13:08:48;2.00;99.90
6518;DHT22;3292;48.944;9.240;2024-01-16T13:11:15;2.10;99.90
6518;DHT22;3292;48.944;9.240;2024-01-16T13:13:46;2.10;99.90
6518;DHT22;3292;48.944;9.240;2024-01-16T13:16:14;2.20;99.90
6518;DHT22;3292;48.944;9.240;2024-01-16T13:18:41;2.20;99.90
6518;DHT22;3292;48.944;9.240;2024-01-16T13:21:09;2.30;99.90
6518;DHT22;3292;48.944;9.240;2024-01-16T13:23:36;2.30;99.90
6518;DHT22;3292;48.944;9.240;2024-01-16T13:26:03;2.40;99.90
6518;DHT22;3292;48.944;9.240;2024-01-16T13:28:30;2.30;99.90
6518;DHT22;3292;48.944;9.240;2024-01-16T13:30:57;2.30;99.90
6518;DHT22;3292;48.944;9.240;2024-01-16T13:33:24;2.30;99.90
6518;DHT22;3292;48.944;9.240;2024-01-16T13:35:53;2.30;99.90
6518;DHT22;3292;48.944;9.240;2024-01-16T13:38:22;2.30;99.90
6518;DHT22;3292;48.944;9.240;2024-01-16T13:40:49;2.50;99.90
6518;DHT22;3292;48.944;9.240;2024-01-16T13:43:17;2.50;99.90
6518;DHT22;3292;48.944;9.240;2024-01-16T13:45:46;2.50;99.90
6518;DHT22;3292;48.944;9.240;2024-01-16T13:48:15;2.50;99.90
6518;DHT22;3292;48.944;9.240;2024-01-16T13:50:43;2.60;99.90
6518;DHT22;3292;48.944;9.240;2024-01-16T13:53:10;2.70;99.90
6518;DHT22;3292;48.944;9.240;2024-01-16T13:55:40;2.60;99.90
6518;DHT22;3292;48.944;9.240;2024-01-16T13:58:07;2.50;99.90
6518;DHT22;3292;48.944;9.240;2024-01-16T14:00:34;2.50;99.90
6518;DHT22;3292;48.944;9.240;2024-01-16T14:03:01;2.40;99.90
6518;DHT22;3292;48.944;9.240;2024-01-16T14:05:31;2.30;99.90
6518;DHT22;3292;48.944;9.240;2024-01-16T14:07:58;2.30;99.90
6518;DHT22;3292;48.944;9.240;2024-01-16T14:10:24;2.20;99.90
6518;DHT22;3292;48.944;9.240;2024-01-16T14:12:52;2.10;99.90
6518;DHT22;3292;48.944;9.240;2024-01-16T14:15:20;2.10;99.90
6518;DHT22;3292;48.944;9.240;2024-01-16T14:17:50;2.00;99.90
6518;DHT22;3292;48.944;9.240;2024-01-16T14:20:18;2.00;99.90
6518;DHT22;3292;48.944;9.240;2024-01-16T14:22:48;2.00;99.90
6518;DHT22;3292;48.944;9.240;2024-01-16T14:25:15;1.90;99.90
6518;DHT22;3292;48.944;9.240;2024-01-16T14:27:45;1.90;99.90
6518;DHT22;3292;48.944;9.240;2024-01-16T14:30:15;1.90;99.90
6518;DHT22;3292;48.944;9.240;2024-01-16T14:32:43;1.80;99.90
6518;DHT22;3292;48.944;9.240;2024-01-16T14:35:10;1.70;99.90
6518;DHT22;3292;48.944;9.240;2024-01-16T14:37:39;1.80;99.90
6518;DHT22;3292;48.944;9.240;2024-01-16T14:40:07;1.80;99.90
6518;DHT22;3292;48.944;9.240;2024-01-16T14:42:38;1.80;99.90
6518;DHT22;3292;48.944;9.240;2024-01-16T14:45:08;1.90;99.90
6518;DHT22;3292;48.944;9.240;2024-01-16T14:47:38;1.70;99.90
6518;DHT22;3292;48.944;9.240;2024-01-16T14:50:08;1.60;99.90
6518;DHT22;3292;48.944;9.240;2024-01-16T14:52:35;1.50;99.90
6518;DHT22;3292;48.944;9.240;2024-01-16T14:55:02;1.50;99.90
6518;DHT22;3292;48.944;9.240;2024-01-16T14:57:31;1.40;99.90
6518;DHT22;3292;48.944;9.240;2024-01-16T15:00:04;1.40;99.90
6518;DHT22;3292;48.944;9.240;2024-01-16T15:02:40;1.30;99.90
6518;DHT22;3292;48.944;9.240;2024-01-16T15:05:07;1.20;99.90
6518;DHT22;3292;48.944;9.240;2024-01-16T15:07:34;1.20;99.90
6518;DHT22;3292;48.944;9.240;2024-01-16T15:10:03;1.20;99.90
6518;DHT22;3292;48.944;9.240;2024-01-16T15:12:31;1.20;99.90
6518;DHT22;3292;48.944;9.240;2024-01-16T15:14:58;1.10;99.90
6518;DHT22;3292;48.944;9.240;2024-01-16T15:17:25;1.00;99.90
6518;DHT22;3292;48.944;9.240;2024-01-16T15:19:54;0.90;99.90
6518;DHT22;3292;48.944;9.240;2024-01-16T15:22:21;0.90;99.90
6518;DHT22;3292;48.944;9.240;2024-01-16T15:24:48;0.80;99.90
6518;DHT22;3292;48.944;9.240;2024-01-16T15:27:14;0.60;99.90
6518;DHT22;3292;48.944;9.240;2024-01-16T15:29:41;0.60;99.90
6518;DHT22;3292;48.944;9.240;2024-01-16T15:32:08;0.50;99.90
6518;DHT22;3292;48.944;9.240;2024-01-16T15:34:36;0.40;99.90
6518;DHT22;3292;48.944;9.240;2024-01-16T15:37:04;0.30;99.90
6518;DHT22;3292;48.944;9.240;2024-01-16T15:39:31;0.20;99.90
6518;DHT22;3292;48.944;9.240;2024-01-16T15:41:58;0.20;99.90
6518;DHT22;3292;48.944;9.240;2024-01-16T15:44:25;0.10;99.90
6518;DHT22;3292;48.944;9.240;2024-01-16T15:46:58;0.10;99.90
6518;DHT22;3292;48.944;9.240;2024-01-16T15:49:26;0.00;99.90
6518;DHT22;3292;48.944;9.240;2024-01-16T15:51:53;0.00;99.90
6518;DHT22;3292;48.944;9.240;2024-01-16T15:54:21;0.00;99.90
6518;DHT22;3292;48.944;9.240;2024-01-16T15:56:49;-0.10;99.90
6518;DHT22;3292;48.944;9.240;2024-01-16T15:59:15;-0.20;99.90
6518;DHT22;3292;48.944;9.240;2024-01-16T16:01:42;-0.20;99.90
6518;DHT22;3292;48.944;9.240;2024-01-16T16:04:09;-0.30;99.90
6518;DHT22;3292;48.944;9.240;2024-01-16T16:06:36;-0.30;99.90
6518;DHT22;3292;48.944;9.240;2024-01-16T16:09:04;-0.40;99.90
6518;DHT22;3292;48.944;9.240;2024-01-16T16:11:35;-0.50;99.90